SBOSBO FSC / LFKF
Speedbird OnlineSpeedbird Online FSC / LFKF

Figari Sud-Corse Airport
08:20 14°C

Location Figari, France
Latitude: 41.5005989074707
Longitude: 9.097780227661133
Web Wikipedia
Altitude 27 Meter / 87 Feet
Distance 1,305 KM / 811 Miles
from London.
Time Zone UTC +2 hours (Europe/Paris)
Codes IATA: FSC
ICAO: LFKF
Currency £1 equals EUR 1.15
Runways
RunwayLength (m)Surface
052480Asphalt
232480Asphalt
Radio
TypeDescriptionFrequency
ATISFIGARI INFO118.725
GNDFIGARI GND121.8
TWRFIGARI TWR120.3
Live ATC
METAR LFKF 060600Z AUTO 04008KT CAVOK 14/12 Q1026 NOSIG
TAF TAF LFKF 060200Z 0603/0703 06005KT CAVOK PROB30 TEMPO 0603/0606 BKN008 BECMG 0609/0611 22010KT BKN025 BECMG 0616/0619 07006KT PROB30 TEMPO 0618/0703 4000 BR BKN008
Weather As Of 06 Oct 2022 08:20
Description Clear sky
Wind 15 km/h from North-East (40°)
Cloud Cover 0%
Precipitation Rain: none, Snow: none
Sunrise 07:25
Sunset 18:58
Rotations During the last 90 days there were
25 flights from LHR
26 flights to LHR


© 2017-2022 Speedbird Online